Meita Maru — YJQE8 — position and weather

sailwx.info

Track history (hours):
 
Tides and Currents Weather Stations Pressure Air Temp Water Temp Dewpoint Dewpoint Depression Visibility Wind Speed Wind Dir Waves Ship Positions

Meita Maru

Last reported at 2015-Feb-17 10:33 UTC. Time now 2015-Mar-04 16:50 UTC.
Position N 34°60' E 139°29'.
Warning: this ship's position is 15 days out of date.

Length 106 m; draft 4.3 m.

Type: Cargo ship. MMSI: 576419000.

Date/timePositionNaut miles runAvg speedWind from/ knotsBaromVisibWave heightAir tempDewpointWater temp
2015-Feb-17 10:33N 34°60' E 139°29'1515.3
2015-Feb-17 09:33N 35°09' E 139°44'9 8.9
2015-Feb-17 08:33N 35°17' E 139°41'1 0.7
2015-Feb-17 07:31N 35°17' E 139°41'0 0.0
2015-Feb-17 06:31N 35°17' E 139°41'0 0.0
2015-Feb-17 05:31N 35°17' E 139°41'0 0.0
2015-Feb-17 04:31N 35°17' E 139°41'0 0.0
2015-Feb-17 03:31N 35°17' E 139°41'0 0.0
2015-Feb-17 02:31N 35°17' E 139°41'0 0.0
2015-Feb-17 01:31N 35°17' E 139°41'0 0.0
2015-Feb-17 00:25N 35°17' E 139°41'0 0.0
2015-Feb-16 23:31N 35°17' E 139°41'0 0.0
2015-Feb-16 22:31N 35°17' E 139°41'0 0.5
2015-Feb-16 21:33N 35°17' E 139°41'2 2.3
2015-Feb-16 20:32N 35°20' E 139°41'0 0.0
2015-Feb-16 19:32N 35°20' E 139°41'0 0.0
2015-Feb-16 18:32N 35°20' E 139°41'0 0.0
2015-Feb-16 17:32N 35°20' E 139°41'0 0.0
2015-Feb-16 16:32N 35°20' E 139°41'0 0.0
2015-Feb-16 15:32N 35°20' E 139°41'5 4.8
2015-Feb-16 14:33N 35°17' E 139°45'1312.6
2015-Feb-16 13:33N 35°04' E 139°43'  
2015-Feb-09 09:09N 34°58' E 139°27'812.8
2015-Feb-09 08:33N 35°02' E 139°34'1413.9
2015-Feb-09 07:33N 35°12' E 139°46'8 7.7
2015-Feb-09 06:28N 35°20' E 139°41'0 0.1
2015-Feb-09 05:31N 35°20' E 139°41'0 0.0
2015-Feb-09 04:31N 35°20' E 139°41'0 0.1
2015-Feb-09 03:31N 35°20' E 139°41'0 0.0
2015-Feb-09 02:31N 35°20' E 139°41'0 0.0
2015-Feb-09 01:28N 35°20' E 139°41'0 0.0
2015-Feb-09 00:28N 35°20' E 139°41'0 0.0
2015-Feb-08 23:31N 35°20' E 139°41'0 0.0
2015-Feb-08 22:28N 35°20' E 139°41'0 0.1
2015-Feb-08 21:31N 35°20' E 139°41'0 0.0
2015-Feb-08 20:28N 35°20' E 139°41'0 0.1
2015-Feb-08 19:31N 35°20' E 139°41'0 0.0
2015-Feb-08 18:28N 35°20' E 139°41'0 0.1
2015-Feb-08 17:28N 35°20' E 139°41'0 0.0
2015-Feb-08 16:28N 35°20' E 139°41'0 0.1
2015-Feb-08 15:31N 35°20' E 139°41'0 0.1
2015-Feb-08 14:28N 35°20' E 139°41'0 0.1
2015-Feb-08 13:31N 35°20' E 139°41'0 0.1
2015-Feb-08 12:34N 35°20' E 139°41'8 8.4
2015-Feb-08 11:33N 35°13' E 139°47'1414.4
2015-Feb-08 10:33N 34°59' E 139°42'  
Track history (hours):
 
Tides and Currents Weather Stations Pressure Air Temp Water Temp Dewpoint Dewpoint Depression Visibility Wind Speed Wind Dir Waves Ship Positions

Meita Maru

Last reported at 2015-Feb-17 10:33 UTC. Time now 2015-Mar-04 16:50 UTC.
Position N 34°60' E 139°29'.
Warning: this ship's position is 15 days out of date.

Length 106 m; draft 4.3 m.

Type: Cargo ship. MMSI: 576419000.

Date/timePositionNaut miles runAvg speedWind from/ knotsBaromVisibWave heightAir tempDewpointWater temp
2015-Feb-17 10:33N 34°60' E 139°29'1515.3
2015-Feb-17 09:33N 35°09' E 139°44'9 8.9
2015-Feb-17 08:33N 35°17' E 139°41'1 0.7
2015-Feb-17 07:31N 35°17' E 139°41'0 0.0
2015-Feb-17 06:31N 35°17' E 139°41'0 0.0
2015-Feb-17 05:31N 35°17' E 139°41'0 0.0
2015-Feb-17 04:31N 35°17' E 139°41'0 0.0
2015-Feb-17 03:31N 35°17' E 139°41'0 0.0
2015-Feb-17 02:31N 35°17' E 139°41'0 0.0
2015-Feb-17 01:31N 35°17' E 139°41'0 0.0
2015-Feb-17 00:25N 35°17' E 139°41'0 0.0
2015-Feb-16 23:31N 35°17' E 139°41'0 0.0
2015-Feb-16 22:31N 35°17' E 139°41'0 0.5
2015-Feb-16 21:33N 35°17' E 139°41'2 2.3
2015-Feb-16 20:32N 35°20' E 139°41'0 0.0
2015-Feb-16 19:32N 35°20' E 139°41'0 0.0
2015-Feb-16 18:32N 35°20' E 139°41'0 0.0
2015-Feb-16 17:32N 35°20' E 139°41'0 0.0
2015-Feb-16 16:32N 35°20' E 139°41'0 0.0
2015-Feb-16 15:32N 35°20' E 139°41'5 4.8
2015-Feb-16 14:33N 35°17' E 139°45'1312.6
2015-Feb-16 13:33N 35°04' E 139°43'  
2015-Feb-09 09:09N 34°58' E 139°27'812.8
2015-Feb-09 08:33N 35°02' E 139°34'1413.9
2015-Feb-09 07:33N 35°12' E 139°46'8 7.7
2015-Feb-09 06:28N 35°20' E 139°41'0 0.1
2015-Feb-09 05:31N 35°20' E 139°41'0 0.0
2015-Feb-09 04:31N 35°20' E 139°41'0 0.1
2015-Feb-09 03:31N 35°20' E 139°41'0 0.0
2015-Feb-09 02:31N 35°20' E 139°41'0 0.0
2015-Feb-09 01:28N 35°20' E 139°41'0 0.0
2015-Feb-09 00:28N 35°20' E 139°41'0 0.0
2015-Feb-08 23:31N 35°20' E 139°41'0 0.0
2015-Feb-08 22:28N 35°20' E 139°41'0 0.1
2015-Feb-08 21:31N 35°20' E 139°41'0 0.0
2015-Feb-08 20:28N 35°20' E 139°41'0 0.1
2015-Feb-08 19:31N 35°20' E 139°41'0 0.0
2015-Feb-08 18:28N 35°20' E 139°41'0 0.1
2015-Feb-08 17:28N 35°20' E 139°41'0 0.0
2015-Feb-08 16:28N 35°20' E 139°41'0 0.1
2015-Feb-08 15:31N 35°20' E 139°41'0 0.1
2015-Feb-08 14:28N 35°20' E 139°41'0 0.1
2015-Feb-08 13:31N 35°20' E 139°41'0 0.1
2015-Feb-08 12:34N 35°20' E 139°41'8 8.4
2015-Feb-08 11:33N 35°13' E 139°47'1414.4
2015-Feb-08 10:33N 34°59' E 139°42'  

Dump ship's entire track history